Time;durP1;ratioP1;P1;durP2;ratioP2;P2;SDS_P1;SDS_P2;PMS_P1;PMS_P2;Temp;Humidity;BMP_temperature;BMP_pressure;BME280_temperature;BME280_humidity;BME280_pressure;Samples;Min_cycle;Max_cycle;Signal;HPM_P1;HPM_P2
2023/09/23 00:00:57;;;;;;;17.63;9.30;;;;;;;;;;5069542;28;20041;-62
2023/09/23 00:03:24;;;;;;;14.13;7.00;;;;;;;;;;5069399;28;20108;-62
2023/09/23 00:05:51;;;;;;;9.00;5.67;;;;;;;;;;5069661;28;20052;-62
2023/09/23 00:08:18;;;;;;;8.90;5.60;;;;;;;;;;5068800;28;20113;-63
2023/09/23 00:10:44;;;;;;;12.30;6.70;;;;;;;;;;5069269;28;20139;-62
2023/09/23 00:13:10;;;;;;;13.20;5.97;;;;;;;;;;5069352;28;20126;-62
2023/09/23 00:15:41;;;;;;;11.50;5.23;;;;;;;;;;5068687;28;20060;-62
2023/09/23 00:18:07;;;;;;;8.47;5.23;;;;;;;;;;5069385;28;20052;-63
2023/09/23 00:20:33;;;;;;;7.60;4.53;;;;;;;;;;5067923;28;20407;-62
2023/09/23 00:22:59;;;;;;;12.97;5.00;;;;;;;;;;5049099;28;20071;-62
2023/09/23 00:25:25;;;;;;;9.70;4.50;;;;;;;;;;5048754;28;20077;-62
2023/09/23 00:27:55;;;;;;;6.17;3.60;;;;;;;;;;5048668;28;20136;-62
2023/09/23 00:30:22;;;;;;;10.30;5.27;;;;;;;;;;5048798;28;20037;-62
2023/09/23 00:32:49;;;;;;;6.77;4.20;;;;;;;;;;5049162;28;20410;-62
2023/09/23 00:35:15;;;;;;;5.50;3.40;;;;;;;;;;5047516;28;20053;-62
2023/09/23 00:37:43;;;;;;;6.93;3.90;;;;;;;;;;5048586;28;20053;-62
2023/09/23 00:40:27;;;;;;;8.63;3.67;;;;;;;;;;5047975;28;20049;-62
2023/09/23 00:42:56;;;;;;;6.93;3.77;;;;;;;;;;5055162;28;20064;-62
2023/09/23 00:45:29;;;;;;;4.33;2.87;;;;;;;;;;5066602;28;20132;-62
2023/09/23 00:47:56;;;;;;;4.32;2.28;;;;;;;;;;5048461;28;20116;-62
2023/09/23 00:50:22;;;;;;;3.00;1.70;;;;;;;;;;5047166;28;20660;-62
2023/09/23 00:52:52;;;;;;;4.17;2.60;;;;;;;;;;5048508;28;20132;-62
2023/09/23 00:55:24;;;;;;;8.30;2.60;;;;;;;;;;5048038;28;20590;-62
2023/09/23 00:57:52;;;;;;;4.23;2.03;;;;;;;;;;5048644;28;20131;-62
2023/09/23 01:00:27;;;;;;;4.00;1.80;;;;;;;;;;5048337;28;20052;-62
2023/09/23 01:02:56;;;;;;;4.80;2.50;;;;;;;;;;5048606;28;20060;-62
2023/09/23 01:05:32;;;;;;;5.87;2.93;;;;;;;;;;5048348;28;20045;-62
2023/09/23 01:08:02;;;;;;;7.13;4.03;;;;;;;;;;5048170;28;20503;-62
2023/09/23 01:10:28;;;;;;;8.27;5.10;;;;;;;;;;5066594;28;20052;-62
2023/09/23 01:12:54;;;;;;;8.77;5.70;;;;;;;;;;5068307;28;20036;-62
2023/09/23 01:15:22;;;;;;;12.97;6.57;;;;;;;;;;5068125;28;20098;-62
2023/09/23 01:17:52;;;;;;;10.43;7.07;;;;;;;;;;5067743;28;20412;-62
2023/09/23 01:20:18;;;;;;;14.33;7.93;;;;;;;;;;5067882;28;20044;-63
2023/09/23 01:22:47;;;;;;;16.17;9.00;;;;;;;;;;5068263;28;20721;-62
2023/09/23 01:25:13;;;;;;;26.33;12.53;;;;;;;;;;5068285;28;20168;-62
2023/09/23 01:27:40;;;;;;;19.93;11.23;;;;;;;;;;5067804;28;20705;-62
2023/09/23 01:30:07;;;;;;;16.63;11.73;;;;;;;;;;5067609;28;20040;-63
2023/09/23 01:32:42;;;;;;;18.40;11.50;;;;;;;;;;5068133;28;20045;-62
2023/09/23 01:35:09;;;;;;;21.87;12.70;;;;;;;;;;5048616;28;20048;-62
2023/09/23 01:37:35;;;;;;;23.83;12.97;;;;;;;;;;5047733;28;20121;-62
2023/09/23 01:40:03;;;;;;;23.40;13.30;;;;;;;;;;5047929;28;20522;-62
2023/09/23 01:42:32;;;;;;;22.97;13.63;;;;;;;;;;5047459;28;20053;-62
2023/09/23 01:44:58;;;;;;;27.50;14.67;;;;;;;;;;5047739;28;20455;-62
2023/09/23 01:47:25;;;;;;;31.47;15.63;;;;;;;;;;5047972;28;20166;-62
2023/09/23 01:49:51;;;;;;;23.40;13.37;;;;;;;;;;5048036;28;20132;-62
2023/09/23 01:52:17;;;;;;;23.43;13.83;;;;;;;;;;5047102;28;20048;-62
2023/09/23 01:54:47;;;;;;;31.40;16.70;;;;;;;;;;5047737;28;20045;-62
2023/09/23 01:57:16;;;;;;;23.97;13.77;;;;;;;;;;5047593;28;20610;-62
2023/09/23 01:59:43;;;;;;;22.87;13.37;;;;;;;;;;5050289;28;20533;-62
2023/09/23 02:02:12;;;;;;;20.83;13.27;;;;;;;;;;5051166;28;20045;-62
2023/09/23 02:04:40;;;;;;;21.10;12.70;;;;;;;;;;5051350;28;20075;-62
2023/09/23 02:07:07;;;;;;;21.93;13.10;;;;;;;;;;5051292;28;20546;-62
2023/09/23 02:09:37;;;;;;;15.40;10.50;;;;;;;;;;5051428;28;20044;-62
2023/09/23 02:12:06;;;;;;;23.03;12.97;;;;;;;;;;5051640;28;20049;-62
2023/09/23 02:14:32;;;;;;;19.93;12.23;;;;;;;;;;5051324;28;20499;-62
2023/09/23 02:16:58;;;;;;;27.50;13.77;;;;;;;;;;5051548;28;20044;-62
2023/09/23 02:19:25;;;;;;;23.03;13.37;;;;;;;;;;5051160;28;20045;-62
2023/09/23 02:21:51;;;;;;;25.63;14.80;;;;;;;;;;5051407;28;20045;-62
2023/09/23 02:24:18;;;;;;;23.00;12.70;;;;;;;;;;5051145;28;20438;-62
2023/09/23 02:26:48;;;;;;;23.23;13.40;;;;;;;;;;5051515;28;20085;-62
2023/09/23 02:29:14;;;;;;;25.50;13.30;;;;;;;;;;5055868;28;20041;-62
2023/09/23 02:31:47;;;;;;;22.60;11.37;;;;;;;;;;5070963;28;20052;-62
2023/09/23 02:34:16;;;;;;;19.63;10.93;;;;;;;;;;5070892;28;20517;-62
2023/09/23 02:36:45;;;;;;;25.57;12.23;;;;;;;;;;5070871;28;20140;-62
2023/09/23 02:39:19;;;;;;;20.60;10.87;;;;;;;;;;5071094;28;20525;-62
2023/09/23 02:41:46;;;;;;;17.80;10.37;;;;;;;;;;5071208;28;20051;-62
2023/09/23 02:44:18;;;;;;;17.23;10.93;;;;;;;;;;5070959;28;20082;-62
2023/09/23 02:46:45;;;;;;;20.17;11.37;;;;;;;;;;5069860;28;20045;-62
2023/09/23 02:49:11;;;;;;;19.57;11.23;;;;;;;;;;5070771;28;20055;-62
2023/09/23 02:51:38;;;;;;;30.23;14.13;;;;;;;;;;5070171;28;20131;-62
2023/09/23 02:54:05;;;;;;;25.17;13.20;;;;;;;;;;5069712;28;20568;-62
2023/09/23 02:56:33;;;;;;;30.27;15.37;;;;;;;;;;5055754;28;20515;-62
2023/09/23 02:59:00;;;;;;;25.23;13.37;;;;;;;;;;5050557;28;20495;-62
2023/09/23 03:01:27;;;;;;;21.83;13.83;;;;;;;;;;5050895;28;20076;-62
2023/09/23 03:03:55;;;;;;;24.07;12.97;;;;;;;;;;5050712;28;20087;-62
2023/09/23 03:06:22;;;;;;;28.33;14.20;;;;;;;;;;5050784;28;20041;-62
2023/09/23 03:08:53;;;;;;;20.00;12.40;;;;;;;;;;5050582;28;20131;-62
2023/09/23 03:11:19;;;;;;;30.97;15.23;;;;;;;;;;5049924;28;20114;-67
2023/09/23 03:13:45;;;;;;;24.00;13.60;;;;;;;;;;5050361;28;20388;-63
2023/09/23 03:16:14;;;;;;;25.90;14.93;;;;;;;;;;5050376;28;20098;-63
2023/09/23 03:19:10;;;;;;;28.13;15.60;;;;;;;;;;5050200;28;20053;-62
2023/09/23 03:21:37;;;;;;;24.43;14.50;;;;;;;;;;5049749;28;20486;-62
2023/09/23 03:24:03;;;;;;;33.03;16.43;;;;;;;;;;5050250;28;20499;-62
2023/09/23 03:26:29;;;;;;;24.63;15.03;;;;;;;;;;5050020;28;20087;-62
2023/09/23 03:28:57;;;;;;;28.03;16.10;;;;;;;;;;5049161;28;20057;-63
2023/09/23 03:31:23;;;;;;;36.63;18.00;;;;;;;;;;5050094;28;20095;-62
2023/09/23 03:33:50;;;;;;;39.30;18.70;;;;;;;;;;5049891;28;20100;-62
2023/09/23 03:36:16;;;;;;;30.00;16.77;;;;;;;;;;5049909;28;20056;-62
2023/09/23 03:38:42;;;;;;;47.03;19.93;;;;;;;;;;5049891;28;20056;-62
2023/09/23 03:41:11;;;;;;;29.77;17.03;;;;;;;;;;5049624;28;20049;-62
2023/09/23 03:43:39;;;;;;;36.97;18.53;;;;;;;;;;5050100;28;20065;-62
2023/09/23 03:46:11;;;;;;;49.93;21.63;;;;;;;;;;5050113;28;20484;-62
2023/09/23 03:48:37;;;;;;;37.67;20.40;;;;;;;;;;5049335;28;20057;-62
2023/09/23 03:51:05;;;;;;;53.57;23.10;;;;;;;;;;5049830;28;20562;-62
2023/09/23 03:53:31;;;;;;;38.60;21.17;;;;;;;;;;5049431;28;20110;-62
2023/09/23 03:56:00;;;;;;;46.90;22.60;;;;;;;;;;5049954;28;20053;-61
2023/09/23 03:58:27;;;;;;;37.60;20.83;;;;;;;;;;5049235;28;20044;-62
2023/09/23 04:00:56;;;;;;;40.90;22.40;;;;;;;;;;5066871;28;20159;-62
2023/09/23 04:03:23;;;;;;;50.83;23.03;;;;;;;;;;5069454;28;20117;-62
2023/09/23 04:05:57;;;;;;;56.40;26.17;;;;;;;;;;5069622;28;20052;-62
2023/09/23 04:08:24;;;;;;;42.33;22.23;;;;;;;;;;5068784;28;20084;-62
2023/09/23 04:10:50;;;;;;;44.20;23.07;;;;;;;;;;5069289;28;20562;-62
2023/09/23 04:13:17;;;;;;;41.83;23.50;;;;;;;;;;5069291;28;20507;-62
2023/09/23 04:15:43;;;;;;;49.33;25.90;;;;;;;;;;5064181;28;20511;-62
2023/09/23 04:18:10;;;;;;;48.63;25.40;;;;;;;;;;5048639;28;20044;-62
2023/09/23 04:20:36;;;;;;;64.17;28.43;;;;;;;;;;5049158;28;20044;-62
2023/09/23 04:23:03;;;;;;;54.83;26.60;;;;;;;;;;5048371;28;20045;-62
2023/09/23 04:25:29;;;;;;;51.40;26.87;;;;;;;;;;5049144;28;20060;-62
2023/09/23 04:27:55;;;;;;;59.23;27.53;;;;;;;;;;5048650;28;20440;-62
2023/09/23 04:30:22;;;;;;;69.90;29.47;;;;;;;;;;5048946;28;20045;-64
2023/09/23 04:32:48;;;;;;;53.83;26.90;;;;;;;;;;5048799;28;20060;-62
2023/09/23 04:35:16;;;;;;;54.23;27.73;;;;;;;;;;5049007;28;20045;-62
2023/09/23 04:37:42;;;;;;;94.60;35.37;;;;;;;;;;5048745;28;20496;-62
2023/09/23 04:40:09;;;;;;;68.00;30.73;;;;;;;;;;5048276;28;20068;-62
2023/09/23 04:42:36;;;;;;;67.13;30.60;;;;;;;;;;5048841;28;20056;-62
2023/09/23 04:45:02;;;;;;;60.23;28.63;;;;;;;;;;5048965;28;20051;-62
2023/09/23 04:47:28;;;;;;;90.77;34.70;;;;;;;;;;5048719;28;20098;-62
2023/09/23 04:49:55;;;;;;;125.10;38.83;;;;;;;;;;5048791;28;20041;-62
2023/09/23 04:52:21;;;;;;;86.17;34.20;;;;;;;;;;5048646;28;20045;-62
2023/09/23 04:54:52;;;;;;;157.10;44.07;;;;;;;;;;5048185;28;20052;-62
2023/09/23 04:57:19;;;;;;;73.63;30.83;;;;;;;;;;5047716;28;20051;-62
2023/09/23 04:59:45;;;;;;;76.53;32.20;;;;;;;;;;5048508;28;20044;-62
2023/09/23 05:02:17;;;;;;;123.47;41.37;;;;;;;;;;5048663;28;20041;-62
2023/09/23 05:04:46;;;;;;;97.77;36.53;;;;;;;;;;5048687;28;20045;-62
2023/09/23 05:07:12;;;;;;;91.03;36.13;;;;;;;;;;5048590;28;20045;-62
2023/09/23 05:09:39;;;;;;;105.37;39.53;;;;;;;;;;5048091;28;20067;-62
2023/09/23 05:12:05;;;;;;;74.27;35.03;;;;;;;;;;5047444;28;20059;-62
2023/09/23 05:14:31;;;;;;;103.80;39.77;;;;;;;;;;5048078;28;20033;-62
2023/09/23 05:16:58;;;;;;;92.40;39.40;;;;;;;;;;5048383;28;20045;-62
2023/09/23 05:19:27;;;;;;;95.73;39.87;;;;;;;;;;5047762;28;20068;-62
2023/09/23 05:21:53;;;;;;;102.63;40.70;;;;;;;;;;5046871;28;20041;-62
2023/09/23 05:24:20;;;;;;;104.17;42.07;;;;;;;;;;5048052;28;20041;-62
2023/09/23 05:26:49;;;;;;;138.50;47.57;;;;;;;;;;5047039;28;20061;-62
2023/09/23 05:29:15;;;;;;;101.30;41.53;;;;;;;;;;5052680;28;20119;-62
2023/09/23 05:31:41;;;;;;;105.83;43.63;;;;;;;;;;5053663;28;20056;-62
2023/09/23 05:34:08;;;;;;;130.23;45.77;;;;;;;;;;5062289;28;20489;-62
2023/09/23 05:36:34;;;;;;;111.57;46.23;;;;;;;;;;5047611;28;20045;-62
2023/09/23 05:39:00;;;;;;;117.10;48.03;;;;;;;;;;5047929;28;20056;-62
2023/09/23 05:41:26;;;;;;;133.07;48.97;;;;;;;;;;5047684;28;20530;-62
2023/09/23 05:43:52;;;;;;;122.63;49.20;;;;;;;;;;5046592;28;20086;-62
2023/09/23 05:46:21;;;;;;;137.90;51.57;;;;;;;;;;5046493;28;20041;-62
2023/09/23 05:48:48;;;;;;;140.10;51.33;;;;;;;;;;5047198;28;20260;-62
2023/09/23 05:51:15;;;;;;;116.80;48.20;;;;;;;;;;5047612;28;20503;-62
2023/09/23 05:53:41;;;;;;;158.53;54.93;;;;;;;;;;5047530;28;20503;-62
2023/09/23 05:56:08;;;;;;;147.43;54.40;;;;;;;;;;5047624;28;20040;-62
2023/09/23 05:58:34;;;;;;;117.50;49.83;;;;;;;;;;5047095;28;20053;-62
2023/09/23 06:01:00;;;;;;;152.53;55.37;;;;;;;;;;5047579;28;20041;-62
2023/09/23 06:03:26;;;;;;;162.40;59.00;;;;;;;;;;5047650;28;20048;-62
2023/09/23 06:05:52;;;;;;;126.30;53.37;;;;;;;;;;5047475;28;20037;-62
2023/09/23 06:08:18;;;;;;;153.03;55.37;;;;;;;;;;5047512;28;20037;-63
2023/09/23 06:10:44;;;;;;;126.20;55.37;;;;;;;;;;5045588;28;20056;-62
2023/09/23 06:13:10;;;;;;;159.20;58.60;;;;;;;;;;5046025;28;20045;-62
2023/09/23 06:15:36;;;;;;;143.20;54.87;;;;;;;;;;5047252;28;20085;-62
2023/09/23 06:18:03;;;;;;;128.27;53.07;;;;;;;;;;5047239;28;20496;-62
2023/09/23 06:20:29;;;;;;;127.30;54.50;;;;;;;;;;5047044;28;20056;-62
2023/09/23 06:22:55;;;;;;;111.70;52.10;;;;;;;;;;5047523;28;20051;-63
2023/09/23 06:25:21;;;;;;;100.83;46.77;;;;;;;;;;5047212;28;20128;-63
2023/09/23 06:27:48;;;;;;;106.23;48.63;;;;;;;;;;5047291;28;20107;-62
2023/09/23 06:30:15;;;;;;;110.17;47.63;;;;;;;;;;5047104;28;20511;-63
2023/09/23 06:32:41;;;;;;;142.67;54.13;;;;;;;;;;5047166;28;20102;-62
2023/09/23 06:35:08;;;;;;;145.43;53.70;;;;;;;;;;5046788;28;20049;-62
2023/09/23 06:37:34;;;;;;;116.37;49.27;;;;;;;;;;5047493;28;20096;-63
2023/09/23 06:40:00;;;;;;;101.50;47.97;;;;;;;;;;5047152;28;20087;-62
2023/09/23 06:42:26;;;;;;;127.50;50.50;;;;;;;;;;5046463;28;20044;-62
2023/09/23 06:44:52;;;;;;;115.67;49.30;;;;;;;;;;5048147;28;20050;-63
2023/09/23 06:47:18;;;;;;;96.73;46.37;;;;;;;;;;5050873;28;20499;-62
2023/09/23 06:49:43;;;;;;;105.87;47.70;;;;;;;;;;5050525;28;20041;-63
2023/09/23 06:52:10;;;;;;;97.20;45.70;;;;;;;;;;5050479;28;20045;-63
2023/09/23 06:54:36;;;;;;;95.53;45.43;;;;;;;;;;5050334;28;20053;-62
2023/09/23 06:57:02;;;;;;;92.93;45.50;;;;;;;;;;5050523;28;20040;-63
2023/09/23 06:59:28;;;;;;;98.00;46.17;;;;;;;;;;5050193;28;20049;-62
2023/09/23 07:01:54;;;;;;;101.17;46.43;;;;;;;;;;5050719;28;20049;-67
2023/09/23 07:04:20;;;;;;;88.87;42.03;;;;;;;;;;5050518;28;20495;-63
2023/09/23 07:06:46;;;;;;;105.77;46.73;;;;;;;;;;5048671;28;20057;-62
2023/09/23 07:09:12;;;;;;;76.60;40.53;;;;;;;;;;5050422;28;20388;-62
2023/09/23 07:11:39;;;;;;;79.47;42.13;;;;;;;;;;5049416;28;20037;-62
2023/09/23 07:14:06;;;;;;;65.40;38.60;;;;;;;;;;5049979;28;20080;-62
2023/09/23 07:16:33;;;;;;;69.80;36.97;;;;;;;;;;5050085;28;20049;-62
2023/09/23 07:19:00;;;;;;;60.33;35.87;;;;;;;;;;5049795;28;20499;-62
2023/09/23 07:21:26;;;;;;;60.83;35.00;;;;;;;;;;5049828;28;20077;-62
2023/09/23 07:23:52;;;;;;;54.93;33.67;;;;;;;;;;5050178;28;20083;-62
2023/09/23 07:26:21;;;;;;;59.47;36.73;;;;;;;;;;5050029;28;20044;-62
2023/09/23 07:28:50;;;;;;;48.47;32.30;;;;;;;;;;5049864;28;20041;-62
2023/09/23 07:31:16;;;;;;;54.87;33.30;;;;;;;;;;5049683;28;20041;-62
2023/09/23 07:33:42;;;;;;;51.30;33.10;;;;;;;;;;5049869;28;20103;-62
2023/09/23 07:36:12;;;;;;;53.47;32.20;;;;;;;;;;5048293;28;20047;-62
2023/09/23 07:38:38;;;;;;;44.97;31.17;;;;;;;;;;5049449;28;20060;-62
2023/09/23 07:41:04;;;;;;;44.97;29.50;;;;;;;;;;5049446;28;20053;-62
2023/09/23 07:43:30;;;;;;;47.60;30.73;;;;;;;;;;5048624;28;20060;-62
2023/09/23 07:45:56;;;;;;;41.37;29.37;;;;;;;;;;5050283;28;20045;-62
2023/09/23 07:48:22;;;;;;;47.23;29.70;;;;;;;;;;5049463;28;20075;-62
2023/09/23 07:50:48;;;;;;;40.90;27.70;;;;;;;;;;5049714;28;20073;-62
2023/09/23 07:53:15;;;;;;;46.73;30.50;;;;;;;;;;5050230;28;20049;-62
2023/09/23 07:55:41;;;;;;;41.63;28.30;;;;;;;;;;5049352;28;20063;-62
2023/09/23 07:58:07;;;;;;;39.27;28.43;;;;;;;;;;5049495;28;20048;-62
2023/09/23 08:00:33;;;;;;;35.90;27.33;;;;;;;;;;5049902;28;20399;-62
2023/09/23 08:02:59;;;;;;;39.07;26.53;;;;;;;;;;5049810;28;20048;-62
2023/09/23 08:05:26;;;;;;;27.27;23.17;;;;;;;;;;5049661;28;20045;-62
2023/09/23 08:07:52;;;;;;;29.77;23.57;;;;;;;;;;5049475;28;20053;-62
2023/09/23 08:10:18;;;;;;;29.00;21.73;;;;;;;;;;5049576;28;20121;-63
2023/09/23 08:12:44;;;;;;;26.07;18.97;;;;;;;;;;5049092;28;20519;-63
2023/09/23 08:15:11;;;;;;;24.33;19.63;;;;;;;;;;5049553;28;20060;-63
2023/09/23 08:17:39;;;;;;;23.63;20.17;;;;;;;;;;5049144;28;20056;-62
2023/09/23 08:20:17;;;;;;;28.77;21.57;;;;;;;;;;5048472;28;20041;-63
2023/09/23 08:22:43;;;;;;;27.73;19.67;;;;;;;;;;5048958;28;20122;-63
2023/09/23 08:25:09;;;;;;;23.13;19.03;;;;;;;;;;5049385;28;20514;-62
2023/09/23 08:27:35;;;;;;;25.23;19.77;;;;;;;;;;5049579;28;20045;-63
2023/09/23 08:30:01;;;;;;;26.53;18.53;;;;;;;;;;5048973;28;20205;-63
2023/09/23 08:32:27;;;;;;;20.60;18.50;;;;;;;;;;5048715;28;20052;-63
2023/09/23 08:34:53;;;;;;;20.87;17.43;;;;;;;;;;5049283;28;20045;-63
2023/09/23 08:37:19;;;;;;;19.77;16.30;;;;;;;;;;5048884;28;20422;-64
2023/09/23 08:39:46;;;;;;;20.30;14.37;;;;;;;;;;5048551;28;20175;-64
2023/09/23 08:42:11;;;;;;;20.93;14.77;;;;;;;;;;5048599;28;20494;-63
2023/09/23 08:44:38;;;;;;;17.47;14.70;;;;;;;;;;5048676;28;20037;-63
2023/09/23 08:47:05;;;;;;;17.90;14.23;;;;;;;;;;5048742;28;20056;-64
2023/09/23 08:49:32;;;;;;;16.30;12.23;;;;;;;;;;5048406;28;20149;-63
2023/09/23 08:51:58;;;;;;;13.73;11.90;;;;;;;;;;5048787;28;20045;-64
2023/09/23 08:54:28;;;;;;;13.83;12.33;;;;;;;;;;5048579;28;20631;-63
2023/09/23 08:56:54;;;;;;;13.13;11.20;;;;;;;;;;5048710;28;20053;-63
2023/09/23 08:59:20;;;;;;;12.03;10.27;;;;;;;;;;5048188;28;20198;-63
2023/09/23 09:01:46;;;;;;;11.37;10.10;;;;;;;;;;5048780;28;20546;-64
2023/09/23 09:04:16;;;;;;;11.30;9.83;;;;;;;;;;5050426;28;20550;-64
2023/09/23 09:06:51;;;;;;;16.33;9.17;;;;;;;;;;5068563;28;20341;-64
2023/09/23 09:09:18;;;;;;;10.13;9.03;;;;;;;;;;5059298;28;20048;-64
2023/09/23 09:11:47;;;;;;;11.10;7.97;;;;;;;;;;5048389;28;20049;-63
2023/09/23 09:14:14;;;;;;;10.60;9.17;;;;;;;;;;5056755;28;20044;-63
2023/09/23 09:16:40;;;;;;;10.77;8.37;;;;;;;;;;5067491;28;20601;-64
2023/09/23 09:19:06;;;;;;;10.50;8.10;;;;;;;;;;5068373;28;20044;-64
2023/09/23 09:21:34;;;;;;;10.23;7.47;;;;;;;;;;5058767;28;20125;-64
2023/09/23 09:24:00;;;;;;;13.20;7.83;;;;;;;;;;5048550;28;20052;-64
2023/09/23 09:26:26;;;;;;;9.27;7.60;;;;;;;;;;5048435;28;20171;-64
2023/09/23 09:28:55;;;;;;;12.33;8.10;;;;;;;;;;5047230;28;20415;-64
2023/09/23 09:31:22;;;;;;;11.43;7.50;;;;;;;;;;5048425;28;20382;-62
2023/09/23 09:33:48;;;;;;;7.40;6.10;;;;;;;;;;5048168;28;20037;-61
2023/09/23 09:36:20;;;;;;;10.20;6.60;;;;;;;;;;5058423;28;20186;-62
2023/09/23 09:38:50;;;;;;;9.20;5.00;;;;;;;;;;5068008;28;20048;-63
2023/09/23 09:41:21;;;;;;;8.53;4.87;;;;;;;;;;5068147;28;20343;-63
2023/09/23 09:43:47;;;;;;;6.23;4.07;;;;;;;;;;5068177;28;20056;-62
2023/09/23 09:46:14;;;;;;;7.07;4.20;;;;;;;;;;5061890;28;20320;-63
2023/09/23 09:48:41;;;;;;;8.37;3.87;;;;;;;;;;5047493;28;20067;-63
2023/09/23 09:51:08;;;;;;;7.70;3.70;;;;;;;;;;5051042;28;20488;-63
2023/09/23 09:53:38;;;;;;;7.93;4.33;;;;;;;;;;5047575;28;20427;-63
2023/09/23 09:56:04;;;;;;;8.60;4.53;;;;;;;;;;5047370;28;20087;-62
2023/09/23 09:58:41;;;;;;;10.30;4.37;;;;;;;;;;5051590;28;20048;-62
2023/09/23 10:01:11;;;;;;;7.53;3.47;;;;;;;;;;5059732;28;20036;-62
2023/09/23 10:03:38;;;;;;;8.37;4.00;;;;;;;;;;5053624;28;20094;-63
2023/09/23 10:06:07;;;;;;;5.90;3.53;;;;;;;;;;5054637;28;20096;-62
2023/09/23 10:08:38;;;;;;;8.70;3.03;;;;;;;;;;5048504;28;20530;-62
2023/09/23 10:11:08;;;;;;;10.30;3.37;;;;;;;;;;5050332;28;20090;-62
2023/09/23 10:13:34;;;;;;;8.73;2.60;;;;;;;;;;5046455;28;20179;-64
2023/09/23 10:16:11;;;;;;;8.60;3.33;;;;;;;;;;5049712;28;20420;-62
2023/09/23 10:18:39;;;;;;;5.60;2.33;;;;;;;;;;5062251;28;20052;-63
2023/09/23 10:21:05;;;;;;;6.03;2.17;;;;;;;;;;5060968;28;20059;-63
2023/09/23 10:23:35;;;;;;;8.30;2.20;;;;;;;;;;5052299;28;20045;-62
2023/09/23 10:26:13;;;;;;;6.80;2.30;;;;;;;;;;5051805;28;20045;-62
2023/09/23 10:28:39;;;;;;;6.37;1.87;;;;;;;;;;5051646;28;20418;-62
2023/09/23 10:31:10;;;;;;;5.90;2.67;;;;;;;;;;5051389;28;20051;-62
2023/09/23 10:33:37;;;;;;;5.57;1.60;;;;;;;;;;5055501;28;20044;-61
2023/09/23 10:36:04;;;;;;;3.53;1.70;;;;;;;;;;5070691;28;20106;-62
2023/09/23 10:38:34;;;;;;;8.10;2.27;;;;;;;;;;5066941;28;20138;-61
2023/09/23 10:41:00;;;;;;;5.87;2.13;;;;;;;;;;5051197;28;20057;-62
2023/09/23 10:43:27;;;;;;;10.97;1.80;;;;;;;;;;5051010;28;20206;-61
2023/09/23 10:45:54;;;;;;;6.93;1.97;;;;;;;;;;5050682;28;20049;-61
2023/09/23 10:48:20;;;;;;;6.63;2.07;;;;;;;;;;5050938;28;20041;-61
2023/09/23 10:50:46;;;;;;;6.90;2.70;;;;;;;;;;5059010;28;20124;-61
2023/09/23 10:53:13;;;;;;;6.50;2.50;;;;;;;;;;5049540;28;20048;-61
2023/09/23 10:55:39;;;;;;;4.40;2.00;;;;;;;;;;5049874;28;20168;-61
2023/09/23 10:58:06;;;;;;;6.87;2.30;;;;;;;;;;5050042;28;20499;-61
2023/09/23 11:00:36;;;;;;;7.17;2.53;;;;;;;;;;5050448;28;20040;-61
2023/09/23 11:03:05;;;;;;;4.40;1.87;;;;;;;;;;5051118;28;20202;-61
2023/09/23 11:05:32;;;;;;;5.97;1.87;;;;;;;;;;5049824;28;20052;-61
2023/09/23 11:07:58;;;;;;;4.70;1.93;;;;;;;;;;5050268;28;20044;-61
2023/09/23 11:10:23;;;;;;;4.10;1.60;;;;;;;;;;5050389;28;20651;-61
2023/09/23 11:12:50;;;;;;;4.00;1.80;;;;;;;;;;5050388;28;20252;-61
2023/09/23 11:15:16;;;;;;;3.33;1.47;;;;;;;;;;5049943;28;20049;-61
2023/09/23 11:17:42;;;;;;;9.87;2.00;;;;;;;;;;5049626;28;20048;-61
2023/09/23 11:20:09;;;;;;;4.10;1.57;;;;;;;;;;5050475;28;20521;-60
2023/09/23 11:22:37;;;;;;;5.53;2.20;;;;;;;;;;5049890;28;20048;-60
2023/09/23 11:25:07;;;;;;;5.20;1.80;;;;;;;;;;5050117;28;20162;-61
2023/09/23 11:27:35;;;;;;;4.90;1.70;;;;;;;;;;5049965;28;20133;-61
2023/09/23 11:30:01;;;;;;;5.00;1.87;;;;;;;;;;5049876;28;20045;-60
2023/09/23 11:32:27;;;;;;;5.13;1.43;;;;;;;;;;5049673;28;20103;-61
2023/09/23 11:34:54;;;;;;;5.60;1.67;;;;;;;;;;5050087;28;20045;-60
2023/09/23 11:37:22;;;;;;;3.80;1.67;;;;;;;;;;5049771;28;20053;-61
2023/09/23 11:39:48;;;;;;;3.77;1.33;;;;;;;;;;5051092;28;20442;-60
2023/09/23 11:42:14;;;;;;;5.13;1.63;;;;;;;;;;5050682;28;20044;-60
2023/09/23 11:44:39;;;;;;;5.17;1.40;;;;;;;;;;5049706;28;20041;-60
2023/09/23 11:47:05;;;;;;;4.87;1.57;;;;;;;;;;5050514;28;20629;-60
2023/09/23 11:49:32;;;;;;;4.87;1.43;;;;;;;;;;5050174;28;20049;-60
2023/09/23 11:51:59;;;;;;;5.37;1.90;;;;;;;;;;5050286;28;20411;-60
2023/09/23 11:54:25;;;;;;;3.47;1.37;;;;;;;;;;5050208;28;20049;-61
2023/09/23 11:56:51;;;;;;;3.37;1.17;;;;;;;;;;5050306;28;20037;-61
2023/09/23 11:59:20;;;;;;;3.43;1.20;;;;;;;;;;5049296;28;20107;-60
2023/09/23 12:01:47;;;;;;;3.90;1.20;;;;;;;;;;5049975;28;20049;-60
2023/09/23 12:04:13;;;;;;;5.60;1.33;;;;;;;;;;5050045;28;20051;-60
2023/09/23 12:06:40;;;;;;;3.60;1.27;;;;;;;;;;5049390;28;20467;-60
2023/09/23 12:09:09;;;;;;;6.37;1.20;;;;;;;;;;5049694;28;20182;-60
2023/09/23 12:11:36;;;;;;;3.97;1.10;;;;;;;;;;5049442;28;20106;-60
2023/09/23 12:14:02;;;;;;;3.33;1.23;;;;;;;;;;5049739;28;20047;-60
2023/09/23 12:16:28;;;;;;;3.40;1.20;;;;;;;;;;5049547;28;20049;-60
2023/09/23 12:18:54;;;;;;;4.07;1.17;;;;;;;;;;5048486;28;20182;-60
2023/09/23 12:21:21;;;;;;;3.23;1.00;;;;;;;;;;5049307;28;20520;-60
2023/09/23 12:23:47;;;;;;;5.53;1.40;;;;;;;;;;5048249;28;20407;-60
2023/09/23 12:26:15;;;;;;;2.97;1.00;;;;;;;;;;5049087;28;20041;-60
2023/09/23 12:28:41;;;;;;;4.97;0.90;;;;;;;;;;5049390;28;20040;-60
2023/09/23 12:31:07;;;;;;;5.63;1.17;;;;;;;;;;5049713;28;20055;-61
2023/09/23 12:33:33;;;;;;;3.93;0.93;;;;;;;;;;5048840;28;20036;-63
2023/09/23 12:35:59;;;;;;;4.43;0.90;;;;;;;;;;5049281;28;20085;-61
2023/09/23 12:38:25;;;;;;;4.50;1.37;;;;;;;;;;5048754;28;20126;-61
2023/09/23 12:40:51;;;;;;;3.07;1.27;;;;;;;;;;5049390;28;20417;-60
2023/09/23 12:43:17;;;;;;;3.10;1.07;;;;;;;;;;5048497;28;20041;-60
2023/09/23 12:45:44;;;;;;;4.07;1.30;;;;;;;;;;5048574;28;20041;-60
2023/09/23 12:48:10;;;;;;;61.47;3.83;;;;;;;;;;5048805;28;20586;-63
2023/09/23 12:50:36;;;;;;;24.73;3.83;;;;;;;;;;5049228;28;20431;-64
2023/09/23 12:53:02;;;;;;;9.47;3.30;;;;;;;;;;5049339;28;20048;-63
2023/09/23 12:55:28;;;;;;;6.90;3.60;;;;;;;;;;5048852;28;20128;-63
2023/09/23 12:57:55;;;;;;;8.23;3.70;;;;;;;;;;5048478;28;20094;-62
2023/09/23 13:00:21;;;;;;;6.50;3.20;;;;;;;;;;5048884;28;20092;-63
2023/09/23 13:02:47;;;;;;;9.57;3.47;;;;;;;;;;5048983;28;20123;-63
2023/09/23 13:05:16;;;;;;;4.67;2.43;;;;;;;;;;5048828;28;20048;-63
2023/09/23 13:07:45;;;;;;;5.33;3.00;;;;;;;;;;5048887;28;20053;-63
2023/09/23 13:10:12;;;;;;;5.60;2.60;;;;;;;;;;5048649;28;20102;-63
2023/09/23 13:12:38;;;;;;;5.10;2.40;;;;;;;;;;5048147;28;20415;-63
2023/09/23 13:15:05;;;;;;;4.73;1.90;;;;;;;;;;5048639;28;20048;-64
2023/09/23 13:17:31;;;;;;;3.97;1.50;;;;;;;;;;5048427;28;20045;-63
2023/09/23 13:19:57;;;;;;;7.17;2.47;;;;;;;;;;5048621;28;20463;-63
2023/09/23 13:22:23;;;;;;;4.63;2.40;;;;;;;;;;5048035;28;20041;-63
2023/09/23 13:24:51;;;;;;;6.93;2.00;;;;;;;;;;5047076;28;20049;-64
2023/09/23 13:27:17;;;;;;;6.43;1.60;;;;;;;;;;5048665;28;20138;-64
2023/09/23 13:29:43;;;;;;;5.83;1.57;;;;;;;;;;5048477;28;20045;-64
2023/09/23 13:32:09;;;;;;;4.07;1.23;;;;;;;;;;5048299;28;20188;-63
2023/09/23 13:34:35;;;;;;;5.07;1.00;;;;;;;;;;5047873;28;20542;-64
2023/09/23 13:37:02;;;;;;;2.70;0.80;;;;;;;;;;5048381;28;20061;-63
2023/09/23 13:39:28;;;;;;;3.27;0.90;;;;;;;;;;5048229;28;20395;-64
2023/09/23 13:41:54;;;;;;;3.77;1.00;;;;;;;;;;5048195;28;20045;-64
2023/09/23 13:44:24;;;;;;;3.20;1.57;;;;;;;;;;5048547;28;20159;-63
2023/09/23 13:46:50;;;;;;;2.43;0.60;;;;;;;;;;5048250;28;20409;-64
2023/09/23 13:49:17;;;;;;;1.23;0.60;;;;;;;;;;5048264;28;20048;-63
2023/09/23 13:51:43;;;;;;;1.53;0.50;;;;;;;;;;5048108;28;20053;-63
2023/09/23 13:54:09;;;;;;;1.93;0.53;;;;;;;;;;5049941;28;20048;-63
2023/09/23 13:56:35;;;;;;;2.10;0.60;;;;;;;;;;5051635;28;20499;-63
2023/09/23 13:59:01;;;;;;;2.73;0.60;;;;;;;;;;5051637;28;20057;-62
2023/09/23 14:01:29;;;;;;;2.43;0.40;;;;;;;;;;5051730;28;20056;-62
2023/09/23 14:03:55;;;;;;;3.73;0.90;;;;;;;;;;5051988;28;20053;-62
2023/09/23 14:06:21;;;;;;;1.33;0.50;;;;;;;;;;5051560;28;20103;-62
2023/09/23 14:08:47;;;;;;;3.63;0.60;;;;;;;;;;5050914;28;20499;-61
2023/09/23 14:11:13;;;;;;;1.40;0.50;;;;;;;;;;5051596;28;20068;-61
2023/09/23 14:13:40;;;;;;;2.87;0.70;;;;;;;;;;5051472;28;20120;-61
2023/09/23 14:16:06;;;;;;;2.73;0.63;;;;;;;;;;5051286;28;20128;-61
2023/09/23 14:18:32;;;;;;;1.27;0.50;;;;;;;;;;5050741;28;20045;-61
2023/09/23 14:20:58;;;;;;;6.23;0.87;;;;;;;;;;5051448;28;20057;-61
2023/09/23 14:23:24;;;;;;;3.93;0.80;;;;;;;;;;5050880;28;20041;-61
2023/09/23 14:25:50;;;;;;;4.80;0.60;;;;;;;;;;5051434;28;20051;-61